NWS Home NWS Lubbock West Texas Mesonet Latest Conditions as of 0403 AM, Fri Jan 18, 2019

Latest   N   C   S   Daily Sum   3hrΔ   24hrΔ   Soil Data 
Site Map   24hr Precip   72hr Precip   Google Plot


Station Time of Last Temp Dew Pt. RH Wind Direction Wind Speed Wind Gust Max Wind Max Temp Min Temp Max RH Min RH Altimeter 1HR Rain Today's Rain Solar Rad Wind ChillRFTI
Abernathy 5ENE  03:55 AM 40 31 69% SW911 16 mph 215° @ 0100 AM 44 37 74 59 29.93" 0 0 0   0
Adrian 6WSW  03:55 AM 52 26 36% SW2533 33 mph 243° @ 0355 AM 52 42 47 33 29.83" 0 0 0   0
Aiken 3WSW  03:55 AM 37 30 76% SW1214 17 mph 215° @ 0201 AM 42 34 78 65 29.91" 0 0 0   0
Amarillo 15NNW   03:55 AM 47 26 44% SW2026 32 mph 221° @ 0331 AM 50 45 46 37 29.80" 0 0 0   0
Amarillo 7SSE  03:55 AM 37 25 60% SW89 22 mph 222° @ 0213 AM 42 35 64 53 29.86" 0 0 0   0
Amarillo 9NNE  03:55 AM 49 25 39% SW2225 31 mph 209° @ 0339 AM 51 40 59 37 29.81" 0 0 0   0
Amherst 1NE  03:55 AM 41 29 63% SW1013 19 mph 225° @ 1225 AM 45 35 76 55 29.91" 0 0 0   0
Andrews 2E  03:55 AM 44 35 69% SW1013 18 mph 211° @ 0135 AM 50 44 70 56 29.98" 0 0 0   0
Anton 6SSW  03:55 AM 34 27 74% SW1011 13 mph 204° @ 1205 AM 43 33 77 58 29.92" 0 0 0 26 0
Aspermont 3NE  03:55 AM 42 38 87% S56 11 mph 181° @ 0110 AM 44 39 94 85 29.94" 0 0 0   0
Big Bend NP - Persimmon Gap  03:55 AM 50 45 86% N22 5 mph 227° @ 0318 AM 55 49 87 68 30.06" 0 0 0   0
Big Lake 1WNW  03:55 AM 51 41 69% S78 15 mph 182° @ 0214 AM 53 49 69 61 30.02" 0 0 0   0
Bootleg 11WNW  03:55 AM 42 24 50% SW1517 23 mph 235° @ 0245 AM 43 35 59 46 29.89" 0 0 0   0
Boys Ranch 1WSW  03:55 AM 50 27 41% W811 21 mph 231° @ 0232 AM 51 35 59 37 29.80" 0 0 0   0
Brownfield 2S  03:55 AM 40 32 74% SW1215 15 mph 226° @ 0355 AM 42 39 74 63 29.94" 0 0 0   0
Caprock Canyons State Park  03:55 AM 49 34 55% SW1821 27 mph 218° @ 0236 AM 51 44 64 49 29.88" 0 0 0   0
Childress 2NNE  03:55 AM 40 38 95% S1416 20 mph 165° @ 0315 AM 42 37 99 92 29.88" 0 0 0   0
Clarendon 2WSW  03:55 AM 42 34 74% SW1416 18 mph 189° @ 0320 AM 44 38 88 73 29.86" 0 0 0   0
Claude 12SW  03:55 AM 43 27 53% SE56 20 mph 183° @ 1204 AM 51 43 53 42 29.86" 0 0 0   0
Clyde 2WNW  03:55 AM 47 42 82% SE1013 23 mph 165° @ 0157 AM 50 47 82 74 29.98" 0 0 0   0
Colorado City 5NW  03:55 AM 46 38 74% S88 13 mph 166° @ 0253 AM 49 46 74 66 29.98" 0 0 0   0
Coyanosa 2N  03:55 AM 41 32 73% NW12 11 mph 194° @ 0217 AM 48 41 73 54 30.00" 0 0 0   0
Crane 1NNW   03:55 AM 53 41 64% SW56 19 mph 189° @ 0141 AM 58 53 65 51 30.00" 0 0 0   0
Crowell 1E  03:55 AM 38 37 100% S55 8 mph 175° @ 1256 AM 39 37 100 96 29.93" 0 0 0   0
Dell City  03:55 AM 37 29 72% E45 12 mph 290° @ 1251 AM 45 35 77 54 30.04" 0 0 0   0
Denver City 7WNW  03:55 AM 41 29 63% SW1214 16 mph 227° @ 0135 AM 43 40 65 60 29.94" 0 0 0   0
Dimmitt 2NE  03:55 AM 43 27 53% SW1721 25 mph 234° @ 0320 AM 44 40 61 52 29.89" 0 0 0   0
Dora NM 2SW  03:55 AM 41 27 57% SW1014 19 mph 223° @ 0200 AM 45 41 57 49 29.93" 0 0 0   0
Dozier 3W  03:55 AM 34 34 100% SW66 10 mph 149° @ 1210 AM 39 34 100 93 29.89" 0 0 0 29 0
Earth 9WSW  03:55 AM 46 30 54% SW1619 26 mph 209° @ 0203 AM 49 41 61 45 29.92" 0 0 0   0
Endee NM 2SW  03:55 AM 43 28 54% S78 25 mph 235° @ 0120 AM 51 40 55 38 29.86" 0 0 0   0
Estelline 3SSE  03:55 AM 40 38 92% N23 16 mph 144° @ 0234 AM 43 39 95 87 29.89" 0 0 0   0
Floydada 2NNE  03:55 AM 39 31 74% SW911 17 mph 215° @ 0150 AM 44 37 76 62 29.90" 0 0 0   0
Fluvanna 3WNW  03:55 AM 44 35 72% S1112 16 mph 192° @ 0115 AM 47 44 72 64 29.96" 0 0 0   0
Fort Chadbourne  03:55 AM 43 39 89% N01 6 mph 102° @ 0250 AM 47 41 91 75 29.99" 0 0 0   0
Fort Lancaster  03:55 AM 54 44 68% E56 7 mph 117° @ 0318 AM 54 48 81 66 30.02" 0 0 0   0
Fort Lewis CO  03:55 AM 31 31 100% SW79 9 mph 244° @ 0355 AM 31 30 100 99 29.94" 0 0 0 24 0
Fort McKavett  03:55 AM 52 45 78% S57 10 mph 189° @ 0109 AM 52 43 86 78 30.02" 0 0 0   0
Friona 2NE  03:55 AM 41 25 51% SW1518 23 mph 221° @ 1225 AM 45 41 53 44 29.90" 0 0 0   0
Fritch 1WNW  03:55 AM 49 26 40% SW2230 30 mph 212° @ 0355 AM 49 44 51 40 29.77" 0 0 0   0
Gail 2ESE  03:55 AM 45 36 72% SW1012 14 mph 207° @ 0220 AM 48 43 73 62 29.96" 0 0 0   0
Goodlett 3W  03:55 AM 36 35 98% SE910 11 mph 153° @ 0235 AM 40 36 98 91 29.89" 0 0 0   0
Goodnight  03:55 AM 45 31 59% SW1720 20 mph 221° @ 0355 AM 45 33 93 59 29.86" 0 0 0   0
Graham 5SSW  03:55 AM 49 38 66% SW1218 18 mph 219° @ 0350 AM 51 48 65 50 29.93" 0 0 0   0
Guadalupe Mtns Natl Park  03:55 AM 53 33 48% W2633 50 mph 262° @ 0201 AM 55 52 50 45 30.03" 0 0 0   0
Guthrie 10WSW  03:55 AM 42 36 82% S77 12 mph 181° @ 0215 AM 44 40 91 79 29.91" 0 0 0   0
Hackberry 2 SSE  03:55 AM 43 39 85% S1619 21 mph 168° @ 0154 AM 44 42 93 85 29.90" 0 0 0   0
Happy 1E  03:55 AM 36 29 73% SW1517 19 mph 226° @ 0345 AM 39 32 82 63 29.88" 0 0 0   0
Hart 3N  03:55 AM 36 29 79% SW811 16 mph 192° @ 1205 AM 42 33 83 60 29.90" 0 0 0   0
Haskell 1NW  03:55 AM 47 40 80% S913 14 mph 173° @ 0220 AM 47 44 87 80 29.95" 0 0 0   0
Hereford 2NW  03:55 AM 42 23 47% SW1518 19 mph 233° @ 0350 AM 43 38 56 44 29.86" 0 0 0   0
Hobbs NM 5NW  03:55 AM 47 30 51% SW911 20 mph 211° @ 0117 AM 48 44 57 51 29.99" 0 0 0   0
Jayton 1SSE  03:55 AM 44 36 76% SW77 10 mph 179° @ 1210 AM 44 41 86 76 29.94" 0 0 0   0
Junction 1SSW  03:55 AM 48 45 89% N00 8 mph 186° @ 0253 AM 49 44 90 82 30.04" 0 0 0   0
Knox City 3NW  03:55 AM 40 39 98% S56 8 mph 187° @ 1215 AM 44 38 98 89 29.95" 0 0 0   0
Lake Alan Henry 1NW  03:55 AM 48 38 68% SW78 11 mph 224° @ 0325 AM 49 39 80 64 29.93" 0 0 0   0
Lamesa 2SE  03:55 AM 35 32 89% S88 9 mph 149° @ 0100 AM 42 35 89 73 29.97" 0 0 0 29 0
Lesley 2S  03:55 AM 36 35 96% NE55 14 mph 95° @ 0100 AM 42 36 96 81 29.88" 0 0 0   0
Levelland 4S  03:55 AM 41 30 66% W1012 14 mph 225° @ 0325 AM 43 38 71 60 29.92" 0 0 0   0
Lomax 1SSE  03:55 AM 47 39 73% SW910 18 mph 188° @ 0109 AM 52 47 73 58 29.98" 0 0 0   0
Lubbock 3WNW TTU  03:55 AM 42 31 64% SW68 19 mph 210° @ 0120 AM 52 42 64 44 29.93" 0 0 0   0
McCamey 1SSW  03:55 AM 55 44 66% E45 15 mph 160° @ 0225 AM 57 53 67 53 30.02" 0 0 0   0
McLean 1E  03:55 AM 37 36 96% S1316 24 mph 183° @ 0235 AM 41 37 96 86 29.83" 0 0 0   0
Memphis 1NE  03:55 AM 36 35 99% SE79 9 mph 142° @ 0355 AM 36 32 99 93 29.87" 0 0 0   0
Menard 2NW   03:55 AM 44 42 92% SW45 5 mph 262° @ 0110 AM 45 41 93 86 30.01" 0 0 0   0
Mertzon 3NNE  03:55 AM 53 43 69% S1418 19 mph 193° @ 0353 AM 54 46 75 58 30.00" 0 0 0   0
Morton 1ENE  03:55 AM 47 29 50% SW1522 23 mph 227° @ 0250 AM 47 41 63 49 29.92" 0 0 0   0
Muleshoe 2SSW  03:55 AM 32 26 79% SW56 11 mph 221° @ 1235 AM 40 30 82 61 29.92" 0 0 0   0
New Home  03:55 AM 39 32 76% SW1214 16 mph 207° @ 1213 AM 46 38 76 58 29.94" 0 0 0   0
Northfield 1S  03:55 AM 41 35 82% SW46 16 mph 176° @ 1205 AM 45 39 90 77 29.88" 0 0 0   0
O'Donnell 1N  03:55 AM 39 34 80% SW910 12 mph 203° @ 0345 AM 46 38 81 55 29.95" 0 0 0   0
Odell 4ENE  03:55 AM 39 38 95% SE1618 21 mph 142° @ 0351 AM 42 38 97 89 29.92" 0 0 0   0
Olton 6S  03:55 AM 34 28 81% SW1011 20 mph 199° @ 0155 AM 42 34 81 62 29.91" 0 0 0 26 0
Paducah 10SW  03:55 AM 40 38 94% SW1416 16 mph 205° @ 0350 AM 41 37 96 93 29.89" 0 0 0   0
Palo Duro 4E (JA Ranch)  03:55 AM 40 31 70% S34 18 mph 190° @ 0224 AM 46 27 94 61 29.87" 0 0 0   0
Palo Duro Canyon SP Floor  03:55 AM 47 28 47% S69 26 mph 224° @ 0115 AM 53 46 50 40 29.86" 0 0 0   0
Palo Duro Canyon State Park Rim  03:55 AM 43 26 51% S79 29 mph 214° @ 0107 AM 47 42 53 48 29.87" 0 0 0   0
Palo Duro Reservoir 1NW   03:55 AM 43 28 55% S1416 26 mph 193° @ 0145 AM 47 42 66 49 29.75" 0 0 0   0
Pampa 2E  03:55 AM 40 33 77% S1014 20 mph 172° @ 0225 AM 43 40 79 75 29.82" 0 0 0   0
Panhandle 1SSW  03:55 AM 40 29 64% S1111 18 mph 179° @ 1251 AM 40 34 79 64 29.84" 0 0 0   0
Plains 3N  03:55 AM 42 30 62% SW910 16 mph 216° @ 0110 AM 45 40 66 60 29.94" 0 0 0   0
Plainview 1S  03:55 AM 41 32 71% SW912 23 mph 215° @ 0110 AM 45 39 71 60 29.90" 0 0 0   0
Post 1NE  03:55 AM 46 35 65% SW710 11 mph 196° @ 0100 AM 49 42 68 52 29.92" 0 0 0   0
Ralls 1SE  03:55 AM 38 31 77% SW89 15 mph 200° @ 1230 AM 40 37 77 68 29.93" 0 0 0   0
Reese Center  03:55 AM 35 28 76% SW56 13 mph 217° @ 0140 AM 42 35 77 61 29.92" 0 0 0   0
Roaring Springs 3N  03:55 AM 43 36 78% W67 12 mph 201° @ 0315 AM 44 39 95 76 29.89" 0 0 0   0
Romero 11 SSW  03:15 AM 47 28 48% SW1720 24 mph 231° @ 0245 AM 48 39 58 44 29.81" 0 0 0   0
Rotan 5W  03:55 AM 50 39 66% SW1618 18 mph 212° @ 0355 AM 50 42 81 66 29.94" 0 0 0   0
San Angelo 7NW  03:55 AM 49 38 67% W34 5 mph 197° @ 0340 AM 49 43 81 67 30.00" 0 0 0   0
Seagraves 1SW  03:55 AM 41 33 74% SW1114 14 mph 221° @ 0355 AM 41 38 79 67 29.95" 0 0 0   0
Seminole 2NNE  03:55 AM 45 33 64% SW811 17 mph 218° @ 0220 AM 48 42 65 54 29.96" 0 0 0   0
Seymour 3NW  03:55 AM 43 40 92% SE911 17 mph 158° @ 0225 AM 46 43 92 84 29.95" 0 0 0   0
Sierra Blanca 1SSE  03:55 AM 52 35 53% W88 14 mph 228° @ 1230 AM 52 47 62 50 30.11" 0 0 0   0
Silverton 7ESE  03:55 AM 44 31 62% SW1418 25 mph 214° @ 0320 AM 45 40 75 61 29.90" 0 0 0   0
Slaton 2NE  03:55 AM 42 33 73% SW1214 20 mph 210° @ 0130 AM 47 42 73 57 29.92" 0 0 0   0
Snyder 3E  03:55 AM 44 38 80% S1011 14 mph 175° @ 1250 AM 46 43 83 76 29.96" 0 0 0   0
Snyder 3SSW  03:55 AM 45 38 74% S1112 14 mph 183° @ 0222 AM 46 45 75 72 29.96" 0 0 0   0
South Plains 3ENE  03:55 AM 43 32 65% SW1315 20 mph 213° @ 0333 AM 43 38 78 65 29.90" 0 0 0   0
Spur 1W  03:55 AM 34 32 94% SW25 6 mph 315° @ 1205 AM 36 33 94 88 29.92" 0 0 0   0
St. Lawrence 5SW  03:55 AM 49 39 68% S912 16 mph 191° @ 0220 AM 51 46 72 63 29.99" 0 0 0   0
Stamford 5ESE  03:55 AM 48 43 80% S911 13 mph 186° @ 0206 AM 49 43 90 80 29.96" 0 0 0   0
Sterling City 4WSW  03:55 AM 51 39 63% SW57 15 mph 192° @ 0316 AM 53 45 71 58 30.00" 0 0 0   0
Stinnett 1NNW  03:55 AM 45 28 51% SW1719 23 mph 213° @ 0329 AM 45 40 62 51 29.78" 0 0 0   0
Sundown 8WSW  03:55 AM 46 29 51% SW1519 22 mph 227° @ 0335 AM 48 39 69 49 29.92" 0 0 0   0
Sweetwater 11SW   03:55 AM 51 38 59% S1112 18 mph 152° @ 1206 AM 53 50 63 54 29.98" 0 0 0   0
Tahoka 3NNE  03:55 AM 43 34 70% SW1314 18 mph 209° @ 0233 AM 49 43 70 50 29.93" 0 0 0   0
Tarzan 2WNW  03:55 AM 47 39 75% S1012 12 mph 205° @ 0349 AM 47 43 79 65 29.98" 0 0 0   0
Tatum NM 2SW  03:55 AM 37 28 70% SW1011 16 mph 214° @ 0130 AM 42 37 72 60 29.95" 0 0 0   0
Throckmorton 1SW  03:55 AM 44 42 92% S79 16 mph 163° @ 0336 AM 44 41 95 91 29.97" 0 0 0   0
Tulia 2ENE  03:55 AM 40 29 64% SW1520 22 mph 220° @ 0325 AM 41 36 69 60 29.88" 0 0 0   0
Turkey 2WSW  03:55 AM 46 33 61% SW1518 21 mph 205° @ 0335 AM 48 40 85 58 29.87" 0 0 0   0
Umbarger 3NNE  03:55 AM 40 25 57% SW1517 21 mph 216° @ 0252 AM 43 37 61 52 29.85" 0 0 0   0
Van Horn 3ENE  03:55 AM 46 35 65% SW78 13 mph 226° @ 1257 AM 50 43 69 47 30.08" 0 0 0   0
Vigo Park  03:55 AM 36 29 76% SW1011 20 mph 221° @ 0239 AM 40 33 78 67 29.89" 0 0 0   0
Wall 2E  03:55 AM 54 45 71% SW78 13 mph 225° @ 0323 AM 54 44 85 68 30.00" 0 0 0   0
Weinert 2NNE  03:55 AM 46 40 79% S1113 16 mph 175° @ 0259 AM 46 43 87 79 29.95" 0 0 0   0
Welch  03:55 AM 36 32 86% SW45 12 mph 210° @ 1201 AM 42 35 86 66 29.96" 0 0 0   0
White River Lake 6NW  03:55 AM 46 34 65% SW1013 14 mph 211° @ 0335 AM 46 43 76 60 29.92" 0 0 0   0
Wolfforth 6SSW  03:55 AM 35 29 81% W57 12 mph 196° @ 1230 AM 45 35 81 60 29.93" 0 0 0   0

West Texas Mesonet Home   Site Map/Menu  NWS Lubbock Soil Data  Daily Summary Page  24hr Precip  72hr Precip  Google Plot